Time;durP1;ratioP1;P1;durP2;ratioP2;P2;SDS_P1;SDS_P2;PMS_P1;PMS_P2;Temp;Humidity;BMP_temperature;BMP_pressure;BME280_temperature;BME280_humidity;BME280_pressure;Samples;Min_cycle;Max_cycle;Signal;HPM_P1;HPM_P2
2022/05/23 00:01:06;;;;;;;3.67;1.37;;;;;;;19.54;61.23;98819.16;1674214;84;21453;-57
2022/05/23 00:03:35;;;;;;;2.97;1.50;;;;;;;19.54;61.23;98819.16;1673530;84;21464;-59
2022/05/23 00:06:03;;;;;;;2.60;1.33;;;;;;;19.55;60.82;98822.08;1673068;84;21273;-58
2022/05/23 00:08:31;;;;;;;2.60;1.10;;;;;;;18.86;65.28;98842.84;1673335;84;21442;-56
2022/05/23 00:10:59;;;;;;;3.50;2.00;;;;;;;18.86;65.28;98842.84;1674118;84;22008;-56
2022/05/23 00:13:27;;;;;;;3.00;1.70;;;;;;;18.84;64.44;98847.09;1673574;85;21293;-56
2022/05/23 00:15:55;;;;;;;3.93;1.60;;;;;;;19.38;60.59;98845.45;1672254;85;21982;-64
2022/05/23 00:18:23;;;;;;;4.33;2.10;;;;;;;19.66;58.19;98846.08;1673114;85;21726;-56
2022/05/23 00:20:52;;;;;;;3.40;1.73;;;;;;;19.59;57.50;98841.61;1673230;85;21377;-57
2022/05/23 00:23:19;;;;;;;5.10;1.80;;;;;;;19.73;56.71;98852.34;1673353;84;21386;-57
2022/05/23 00:25:46;;;;;;;3.20;1.70;;;;;;;19.75;55.14;98858.70;1672620;85;21303;-65
2022/05/23 00:28:13;;;;;;;4.73;1.77;;;;;;;19.80;54.84;98870.55;1674502;84;22434;-57
2022/05/23 00:30:40;;;;;;;4.50;1.87;;;;;;;19.76;53.98;98866.34;1675357;84;21258;-56
2022/05/23 00:35:55;;;;;;;4.63;1.97;;;;;;;19.60;54.46;98870.93;1673605;84;22330;-56
2022/05/23 00:38:22;;;;;;;3.20;1.40;;;;;;;17.72;65.04;98885.52;1673442;85;21404;-56
2022/05/23 00:43:54;;;;;;;3.30;1.70;;;;;;;17.59;68.94;98891.31;1674455;84;21326;-55
2022/05/23 00:46:21;;;;;;;4.27;1.80;;;;;;;17.63;68.69;98898.95;1672398;85;21373;-57
2022/05/23 00:48:48;;;;;;;3.57;1.67;;;;;;;17.51;69.72;98899.21;1672734;85;21326;-59
2022/05/23 00:51:16;;;;;;;4.37;1.90;;;;;;;17.45;70.83;98912.09;1672072;85;21311;-59
2022/05/23 00:53:48;;;;;;;4.60;1.87;;;;;;;17.45;70.90;98906.30;1672908;85;21182;-56
2022/05/23 00:56:16;;;;;;;5.83;2.07;;;;;;;17.42;71.88;98909.98;1673111;85;21789;-55
2022/05/23 00:58:50;;;;;;;4.73;1.90;;;;;;;17.43;72.27;98922.12;1662603;84;21123;-60
2022/05/23 01:01:23;;;;;;;5.10;2.30;;;;;;;17.31;73.69;98921.55;1674063;84;21748;-56
2022/05/23 01:03:51;;;;;;;3.33;1.77;;;;;;;17.35;73.33;98927.37;1665377;84;21257;-56
2022/05/23 01:06:19;;;;;;;4.03;2.03;;;;;;;17.21;74.73;98928.38;1656405;85;21133;-56
2022/05/23 01:08:51;;;;;;;3.87;1.53;;;;;;;17.19;74.24;98938.36;1645381;86;21466;-64
2022/05/23 01:11:19;;;;;;;3.50;2.27;;;;;;;18.33;66.50;98942.20;1655171;85;21879;-56
2022/05/23 01:13:47;;;;;;;3.90;1.90;;;;;;;17.10;73.21;98946.50;1646479;86;21325;-55
2022/05/23 01:16:15;;;;;;;5.80;2.10;;;;;;;16.90;75.84;98946.42;1656128;86;21321;-57
2022/05/23 01:18:44;;;;;;;3.80;1.83;;;;;;;16.90;75.89;98949.06;1644414;84;21298;-64
2022/05/23 01:21:17;;;;;;;3.90;1.77;;;;;;;16.78;76.42;98952.69;1656278;86;21663;-55
2022/05/23 01:23:56;;;;;;;4.07;1.90;;;;;;;16.60;77.80;98955.70;1646292;86;21340;-57
2022/05/23 01:26:25;;;;;;;4.00;2.00;;;;;;;16.50;78.50;98955.63;1649884;86;21195;-56
2022/05/23 01:29:00;;;;;;;6.00;2.37;;;;;;;16.37;78.71;98960.03;1635716;86;21573;-55
2022/05/23 01:31:39;;;;;;;3.00;1.50;;;;;;;16.23;80.40;98959.13;1655452;86;21239;-58
2022/05/23 01:34:15;;;;;;;3.13;1.67;;;;;;;17.41;67.80;98959.24;1655130;86;21246;-56
2022/05/23 01:36:44;;;;;;;3.40;1.40;;;;;;;17.40;65.96;98960.83;1643756;86;21789;-56
2022/05/23 01:39:11;;;;;;;4.63;1.70;;;;;;;17.34;66.22;98961.33;1635077;86;21333;-55
2022/05/23 01:41:38;;;;;;;4.10;1.80;;;;;;;17.38;65.46;98960.28;1655306;84;21377;-56
2022/05/23 01:44:07;;;;;;;4.03;1.60;;;;;;;17.35;65.40;98964.75;1656082;86;22264;-59
2022/05/23 01:46:36;;;;;;;4.17;2.53;;;;;;;17.38;65.28;98972.92;1655741;85;21323;-57
2022/05/23 01:49:23;;;;;;;3.83;2.13;;;;;;;17.40;65.22;98983.22;1655504;86;21135;-55
2022/05/23 01:51:50;;;;;;;3.70;1.70;;;;;;;17.31;65.52;98982.12;1633756;86;21329;-56
2022/05/23 01:54:20;;;;;;;3.47;2.00;;;;;;;17.31;65.21;98990.02;1655776;85;21331;-57
2022/05/23 01:56:49;;;;;;;2.90;1.67;;;;;;;17.34;65.20;98988.98;1655824;85;21374;-55
2022/05/23 02:02:06;;;;;;;4.10;2.23;;;;;;;17.83;64.71;98997.05;1655292;86;21071;-55
2022/05/23 02:04:36;;;;;;;5.63;2.23;;;;;;;18.24;63.19;99001.31;1655366;83;21416;-59
2022/05/23 02:07:05;;;;;;;3.97;1.97;;;;;;;18.65;61.85;98999.18;1655609;86;21859;-54
2022/05/23 02:09:35;;;;;;;5.27;2.10;;;;;;;19.13;59.15;98996.95;1655499;86;21239;-57
2022/05/23 02:12:08;;;;;;;4.50;2.10;;;;;;;19.59;55.98;99001.53;1648206;86;21306;-55
2022/05/23 02:14:36;;;;;;;3.47;2.07;;;;;;;20.07;53.94;98995.16;1634286;86;21623;-57
2022/05/23 02:17:10;;;;;;;5.30;2.30;;;;;;;20.47;51.94;99003.05;1656083;85;22000;-64
2022/05/23 02:19:38;;;;;;;4.60;2.00;;;;;;;20.77;50.31;98996.17;1655822;85;21883;-56
2022/05/23 02:22:14;;;;;;;4.57;1.67;;;;;;;21.18;48.80;98998.38;1655183;84;21399;-62
2022/05/23 02:24:41;;;;;;;3.57;1.80;;;;;;;21.60;46.95;99000.24;1655362;85;21821;-56
2022/05/23 02:27:09;;;;;;;4.17;1.97;;;;;;;21.80;46.12;99001.81;1655591;86;21059;-56
2022/05/23 02:29:39;;;;;;;3.83;2.57;;;;;;;22.03;45.04;98997.48;1656378;85;21574;-56
2022/05/23 02:32:08;;;;;;;4.23;2.00;;;;;;;22.46;43.56;98995.23;1655517;85;21574;-56
2022/05/23 02:34:35;;;;;;;3.73;2.30;;;;;;;20.69;46.48;98998.64;1655730;85;21024;-55
2022/05/23 02:37:02;;;;;;;4.30;2.37;;;;;;;20.42;46.58;99005.22;1655555;85;21079;-55
2022/05/23 02:39:43;;;;;;;4.35;2.62;;;;;;;20.12;47.00;99004.39;1655465;86;21009;-56
2022/05/23 02:42:10;;;;;;;4.53;2.40;;;;;;;19.83;47.41;99010.92;1655707;85;21428;-63
2022/05/23 02:44:38;;;;;;;5.33;2.30;;;;;;;19.66;47.67;99013.95;1655239;86;21024;-56
2022/05/23 02:47:06;;;;;;;5.17;2.40;;;;;;;19.40;47.90;99022.50;1656154;85;21135;-55
2022/05/23 02:49:35;;;;;;;4.50;2.37;;;;;;;19.13;48.63;99028.66;1655991;85;21683;-56
2022/05/23 02:52:04;;;;;;;4.97;2.37;;;;;;;19.18;49.46;99031.30;1656492;86;21322;-55
2022/05/23 02:54:33;;;;;;;3.63;1.97;;;;;;;19.64;49.18;99029.81;1652881;86;21813;-63
2022/05/23 02:57:03;;;;;;;7.67;2.13;;;;;;;20.40;47.77;99037.78;1655899;85;21067;-55
2022/05/23 02:59:31;;;;;;;3.47;1.70;;;;;;;21.00;46.23;99031.69;1655803;86;21472;-56
2022/05/23 03:04:50;;;;;;;5.67;2.13;;;;;;;22.23;43.09;99038.09;1662946;85;21532;-56
2022/05/23 03:07:19;;;;;;;3.67;1.90;;;;;;;22.92;41.89;99044.41;1675022;85;22179;-57
2022/05/23 03:09:54;;;;;;;2.93;1.80;;;;;;;23.52;40.29;99044.81;1668009;85;21057;-62
2022/05/23 03:12:23;;;;;;;3.37;1.90;;;;;;;23.86;39.65;99043.04;1674035;85;20985;-55
2022/05/23 03:14:52;;;;;;;3.10;1.63;;;;;;;24.37;38.31;99041.09;1675069;84;21033;-57
2022/05/23 03:17:19;;;;;;;4.50;1.80;;;;;;;24.69;37.42;99045.36;1675006;85;21009;-57
2022/05/23 03:19:46;;;;;;;4.97;2.10;;;;;;;25.04;36.83;99049.51;1674407;85;21311;-56
2022/05/23 03:27:46;;;;;;;2.70;1.80;;;;;;;27.00;33.56;99059.55;1674793;85;21124;-55
2022/05/23 03:30:15;;;;;;;2.80;1.73;;;;;;;27.53;32.62;99063.55;1674492;85;21120;-56
2022/05/23 03:32:44;;;;;;;2.40;1.60;;;;;;;28.12;31.79;99062.13;1662901;85;21323;-58
2022/05/23 03:35:11;;;;;;;3.73;1.87;;;;;;;28.59;30.90;99054.36;1675032;85;21005;-58
2022/05/23 03:37:38;;;;;;;3.03;1.60;;;;;;;28.90;29.85;99063.79;1674389;85;21022;-58
2022/05/23 03:40:09;;;;;;;3.12;1.92;;;;;;;29.02;29.37;99059.27;1675234;85;22325;-55
2022/05/23 03:42:38;;;;;;;5.50;1.90;;;;;;;29.08;29.11;99058.47;1675342;85;21028;-56
2022/05/23 03:45:07;;;;;;;3.33;1.70;;;;;;;29.19;29.06;99058.80;1674812;85;22154;-60
2022/05/23 03:47:35;;;;;;;;;;;;;;;29.57;28.89;99061.11;1675496;85;21156;-55
2022/05/23 03:50:08;;;;;;;3.22;1.77;;;;;;;30.02;27.89;99059.56;1675374;85;20112;-55
2022/05/23 03:52:36;;;;;;;4.22;2.22;;;;;;;30.18;27.41;99065.01;1675059;85;21097;-55
2022/05/23 03:55:05;;;;;;;3.52;1.77;;;;;;;30.26;27.00;99067.33;1674650;85;20965;-64
2022/05/23 03:57:32;;;;;;;4.67;2.27;;;;;;;30.30;26.70;99054.76;1675057;85;21195;-55
2022/05/23 04:00:00;;;;;;;3.67;2.02;;;;;;;30.37;26.90;99064.92;1674997;85;21084;-55
2022/05/23 04:02:28;;;;;;;3.70;1.90;;;;;;;30.78;26.21;99064.48;1674203;85;21009;-56
2022/05/23 04:04:56;;;;;;;3.02;1.90;;;;;;;31.02;26.01;99064.86;1669579;85;21158;-56
2022/05/23 04:07:28;;;;;;;3.95;1.90;;;;;;;31.25;25.72;99062.34;1638924;86;21595;-60
2022/05/23 04:09:59;;;;;;;3.35;1.72;;;;;;;31.66;25.56;99068.23;1655115;86;21564;-55
2022/05/23 04:12:28;;;;;;;4.03;2.00;;;;;;;32.38;24.80;99070.44;1656002;86;21065;-55
2022/05/23 04:14:55;;;;;;;3.58;2.02;;;;;;;32.87;24.15;99074.39;1655428;85;21577;-57
2022/05/23 04:17:24;;;;;;;3.95;1.95;;;;;;;32.98;23.55;99070.55;1655342;85;21878;-61
2022/05/23 04:19:51;;;;;;;3.42;1.98;;;;;;;32.93;23.39;99077.81;1654717;85;21096;-55
2022/05/23 04:22:20;;;;;;;4.00;2.02;;;;;;;33.10;23.32;99083.27;1654609;85;21924;-55
2022/05/23 04:24:49;;;;;;;18.80;3.22;;;;;;;33.39;23.21;99079.08;1654364;85;21036;-63
2022/05/23 04:27:17;;;;;;;8.45;2.05;;;;;;;33.34;22.55;99079.98;1656071;85;21480;-55
2022/05/23 04:29:46;;;;;;;2.90;1.70;;;;;;;33.62;22.34;99076.33;1644877;85;37941;-55
2022/05/23 04:35:13;;;;;;;3.60;2.45;;;;;;;34.16;21.88;99081.63;1655661;85;21166;-55
2022/05/23 04:37:46;;;;;;;3.98;1.67;;;;;;;34.15;21.85;99087.61;1655606;86;21498;-56
2022/05/23 04:40:14;;;;;;;2.98;1.67;;;;;;;34.06;21.85;99086.56;1656020;86;20985;-62
2022/05/23 04:42:42;;;;;;;2.90;1.77;;;;;;;34.35;21.62;99084.14;1655337;85;20980;-62
2022/05/23 04:45:11;;;;;;;2.87;1.50;;;;;;;34.55;21.40;99083.39;1655913;85;21139;-57
2022/05/23 04:50:26;;;;;;;3.30;1.98;;;;;;;34.92;20.40;99086.04;1655220;85;20259;-61
2022/05/23 04:52:57;;;;;;;2.70;1.37;;;;;;;34.53;20.60;99087.84;1655234;86;21237;-56
2022/05/23 04:55:24;;;;;;;3.92;1.62;;;;;;;34.39;20.79;99089.02;1655917;85;21097;-55
2022/05/23 04:57:52;;;;;;;3.47;1.75;;;;;;;34.05;21.15;99083.62;1656006;85;21045;-55
2022/05/23 05:00:20;;;;;;;3.02;1.82;;;;;;;33.98;21.13;99088.98;1655314;84;21541;-62
2022/05/23 05:02:49;;;;;;;3.17;1.70;;;;;;;34.64;20.86;99084.46;1655607;85;21088;-55
2022/05/23 05:05:18;;;;;;;2.70;1.40;;;;;;;34.96;20.59;99080.07;1655942;83;21037;-57
2022/05/23 05:07:52;;;;;;;2.52;1.45;;;;;;;35.33;20.01;99079.97;1646193;85;21586;-55
2022/05/23 05:10:21;;;;;;;2.95;1.75;;;;;;;35.33;19.95;99081.33;1655591;85;21927;-62
2022/05/23 05:12:49;;;;;;;3.17;1.45;;;;;;;35.22;20.18;99075.64;1655946;86;21320;-55
2022/05/23 05:15:19;;;;;;;;;;;;;;;35.00;19.97;99080.91;1658048;86;21075;-57
2022/05/23 05:17:46;;;;;;;3.20;1.37;;;;;;;34.82;20.14;99078.05;1655911;85;20102;-61
2022/05/23 05:20:14;;;;;;;2.85;1.60;;;;;;;34.59;20.25;99080.17;1655381;86;21047;-62
2022/05/23 05:22:43;;;;;;;2.73;1.50;;;;;;;34.39;20.25;99083.02;1644241;86;22283;-57
2022/05/23 05:25:16;;;;;;;2.37;1.30;;;;;;;33.82;20.72;99081.02;1654765;86;21227;-56
2022/05/23 05:27:54;;;;;;;3.80;2.10;;;;;;;33.49;21.04;99085.81;1645572;85;21047;-55
2022/05/23 05:30:22;;;;;;;2.98;1.65;;;;;;;33.63;20.92;99085.98;1655439;85;21046;-55
2022/05/23 05:33:00;;;;;;;3.90;1.77;;;;;;;33.50;21.06;99087.36;1655902;85;21175;-56
2022/05/23 05:35:40;;;;;;;4.20;2.08;;;;;;;33.44;21.16;99090.12;1655352;86;21028;-58
2022/05/23 05:38:15;;;;;;;2.75;1.72;;;;;;;33.23;21.49;99093.31;1654934;85;21849;-55
2022/05/23 05:40:44;;;;;;;5.58;1.92;;;;;;;33.15;21.21;99099.19;1655518;86;21089;-57
2022/05/23 05:43:28;;;;;;;4.70;2.52;;;;;;;33.45;21.51;99088.20;1655590;85;21119;-55
2022/05/23 05:46:04;;;;;;;4.30;2.08;;;;;;;33.92;21.22;99093.11;1647049;84;21028;-57
2022/05/23 05:48:41;;;;;;;5.12;1.62;;;;;;;34.27;20.58;99091.41;1654546;86;21040;-56
2022/05/23 05:51:12;;;;;;;4.20;1.90;;;;;;;34.24;20.47;99088.66;1655553;85;21650;-57
2022/05/23 05:53:41;;;;;;;3.17;1.70;;;;;;;34.16;20.66;99090.52;1655413;86;22025;-55
2022/05/23 05:56:10;;;;;;;4.35;2.08;;;;;;;34.42;20.50;99085.57;1655436;85;21032;-55
2022/05/23 05:58:39;;;;;;;5.62;2.40;;;;;;;34.82;20.07;99087.53;1655692;85;20971;-55
2022/05/23 06:01:06;;;;;;;5.53;1.65;;;;;;;34.82;19.68;99079.98;1656001;86;21607;-62
2022/05/23 06:03:34;;;;;;;4.17;1.75;;;;;;;34.70;19.59;99080.25;1656011;86;21841;-55
2022/05/23 06:11:38;;;;;;;3.77;1.72;;;;;;;35.25;19.34;99085.73;1656135;85;21103;-54
2022/05/23 06:14:09;;;;;;;2.77;1.67;;;;;;;35.37;19.34;99077.87;1650209;86;20969;-58
2022/05/23 06:16:38;;;;;;;4.35;1.80;;;;;;;35.39;18.95;99091.25;1655167;85;22365;-55
2022/05/23 06:19:07;;;;;;;5.00;1.87;;;;;;;34.88;19.22;99090.66;1655573;85;21627;-55
2022/05/23 06:21:37;;;;;;;5.30;2.15;;;;;;;34.92;19.53;99095.52;1654583;86;21142;-56
2022/05/23 06:24:07;;;;;;;5.72;2.20;;;;;;;35.01;19.09;99091.19;1655755;85;21037;-56
2022/05/23 06:26:38;;;;;;;7.35;2.00;;;;;;;34.86;18.91;99099.16;1654522;86;21074;-60
2022/05/23 06:29:08;;;;;;;5.62;2.25;;;;;;;34.78;19.26;99101.61;1652606;86;21183;-56
2022/05/23 06:31:35;;;;;;;4.28;1.90;;;;;;;35.03;19.37;99103.76;1655851;85;21526;-56
2022/05/23 06:34:04;;;;;;;3.70;1.92;;;;;;;35.42;19.01;99100.53;1655696;85;21048;-58
2022/05/23 06:36:32;;;;;;;4.47;2.22;;;;;;;35.43;19.03;99103.47;1656079;86;21079;-63
2022/05/23 06:38:59;;;;;;;5.15;2.47;;;;;;;35.54;18.61;99105.69;1655978;85;21021;-55
2022/05/23 06:41:44;;;;;;;3.72;2.22;;;;;;;35.54;18.05;99101.04;1644658;86;21129;-55
2022/05/23 06:44:13;;;;;;;4.20;2.15;;;;;;;35.18;18.48;99114.12;1652830;86;21117;-56
2022/05/23 06:47:02;;;;;;;4.20;2.70;;;;;;;34.81;18.47;99104.13;1656444;85;21501;-57
2022/05/23 06:49:47;;;;;;;4.45;2.47;;;;;;;34.59;18.78;99110.72;1655619;85;21562;-55
2022/05/23 06:52:22;;;;;;;6.00;2.67;;;;;;;34.05;19.42;99113.38;1655585;85;21155;-55
2022/05/23 06:54:55;;;;;;;5.35;2.90;;;;;;;33.42;19.02;99110.00;1652209;85;21163;-59
2022/05/23 06:57:23;;;;;;;6.05;2.92;;;;;;;33.41;18.99;99120.57;1655511;86;21075;-56
2022/05/23 06:59:52;;;;;;;3.72;2.52;;;;;;;33.24;18.46;99119.17;1655663;86;21017;-62
2022/05/23 07:02:21;;;;;;;3.62;2.55;;;;;;;33.27;18.02;99119.03;1655743;85;21147;-57
2022/05/23 07:13:19;;;;;;;4.05;1.85;;;;;;;33.35;17.16;99123.39;1671868;85;21635;-56
2022/05/23 07:15:49;;;;;;;3.25;2.10;;;;;;;32.41;17.30;99131.02;1672681;85;21108;-57
2022/05/23 07:18:17;;;;;;;5.05;1.80;;;;;;;31.59;19.12;99131.95;1672130;85;21028;-56
2022/05/23 07:20:46;;;;;;;3.50;1.97;;;;;;;31.93;18.22;99127.72;1685318;83;21294;-58
2022/05/23 07:23:16;;;;;;;3.63;1.90;;;;;;;32.22;17.88;99126.39;1694829;84;21479;-55
2022/05/23 07:25:47;;;;;;;5.65;1.90;;;;;;;32.04;18.40;99131.41;1684701;84;21127;-56
2022/05/23 07:28:14;;;;;;;5.42;2.15;;;;;;;31.93;18.24;99130.41;1693920;84;21155;-63
2022/05/23 07:30:43;;;;;;;4.40;1.80;;;;;;;32.03;18.00;99123.70;1694467;84;21135;-63
2022/05/23 07:33:11;;;;;;;3.95;1.82;;;;;;;31.86;18.09;99136.45;1695118;84;22223;-55
2022/05/23 07:35:46;;;;;;;2.98;1.80;;;;;;;31.37;18.27;99127.45;1693224;84;21106;-55
2022/05/23 07:38:14;;;;;;;4.28;1.77;;;;;;;30.69;18.10;99128.41;1695153;83;20960;-56
2022/05/23 07:40:42;;;;;;;5.47;1.80;;;;;;;29.93;18.79;99129.33;1694772;83;21091;-57
2022/05/23 07:43:11;;;;;;;4.23;1.83;;;;;;;29.56;19.44;99140.89;1694610;83;21926;-55
2022/05/23 07:45:39;;;;;;;3.67;2.03;;;;;;;29.72;19.44;99135.64;1695715;83;22394;-56
2022/05/23 07:48:08;;;;;;;4.10;2.07;;;;;;;30.16;18.24;99134.47;1694414;84;21549;-57
2022/05/23 07:50:37;;;;;;;3.65;1.90;;;;;;;30.74;16.93;99122.80;1695318;83;21062;-57
2022/05/23 08:01:34;;;;;;;7.33;2.10;;;;;;;30.29;17.81;99136.54;1695515;83;21152;-56
2022/05/23 08:04:02;;;;;;;2.60;1.37;;;;;;;30.35;18.00;99133.84;1695242;83;21070;-65
2022/05/23 08:06:32;;;;;;;3.90;2.10;;;;;;;30.55;18.35;99132.06;1684957;84;21075;-56
2022/05/23 08:08:59;;;;;;;4.13;1.80;;;;;;;30.75;18.38;99131.08;1672947;84;21084;-56
2022/05/23 08:11:28;;;;;;;2.70;1.70;;;;;;;31.43;17.73;99127.95;1673828;84;21276;-55
2022/05/23 08:14:00;;;;;;;5.53;1.80;;;;;;;31.63;17.47;99128.77;1671725;85;21057;-58
2022/05/23 08:16:30;;;;;;;5.30;2.20;;;;;;;31.51;17.32;99135.05;1672814;85;21052;-61
2022/05/23 08:18:58;;;;;;;5.97;2.00;;;;;;;31.47;17.49;99130.16;1672139;85;21036;-57
2022/05/23 08:21:26;;;;;;;5.70;2.10;;;;;;;31.72;17.79;99132.84;1673812;84;21015;-55
2022/05/23 08:23:53;;;;;;;3.33;1.80;;;;;;;31.77;17.13;99135.05;1672936;85;21264;-65
2022/05/23 08:26:22;;;;;;;3.00;1.77;;;;;;;32.06;16.83;99133.78;1672473;85;21521;-57
2022/05/23 08:28:50;;;;;;;4.23;2.27;;;;;;;31.98;16.76;99132.84;1672709;85;21047;-55
2022/05/23 08:31:18;;;;;;;4.10;2.10;;;;;;;31.80;17.21;99135.13;1674031;84;21072;-56
2022/05/23 08:34:06;;;;;;;3.87;2.10;;;;;;;31.54;17.26;99138.41;1665997;84;21102;-61
2022/05/23 08:36:35;;;;;;;4.00;2.00;;;;;;;30.75;17.42;99148.56;1673247;84;21147;-54
2022/05/23 08:39:03;;;;;;;5.63;2.20;;;;;;;30.31;18.32;99149.09;1673632;84;21062;-55
2022/05/23 08:41:44;;;;;;;2.83;1.57;;;;;;;30.50;18.27;99136.36;1670803;85;21621;-55
2022/05/23 08:44:40;;;;;;;6.83;2.37;;;;;;;30.83;17.95;99148.19;1668580;85;21039;-56
2022/05/23 08:47:18;;;;;;;6.57;1.70;;;;;;;31.33;17.62;99137.90;1643188;85;21063;-57
2022/05/23 08:49:51;;;;;;;8.77;2.50;;;;;;;32.23;17.10;99143.55;1666759;85;22259;-56
2022/05/23 08:52:37;;;;;;;4.43;2.00;;;;;;;32.23;16.47;99146.25;1673150;84;21622;-55
2022/05/23 08:55:30;;;;;;;3.33;2.03;;;;;;;31.81;16.86;99150.73;1667368;85;21565;-56
2022/05/23 08:58:27;;;;;;;5.63;1.80;;;;;;;31.41;16.93;99156.59;1673948;84;21170;-57
2022/05/23 09:00:59;;;;;;;3.57;1.70;;;;;;;31.03;17.41;99158.52;1664835;84;21079;-56
2022/05/23 09:03:32;;;;;;;3.60;2.03;;;;;;;30.42;17.70;99157.43;1674295;84;21306;-55
2022/05/23 09:06:28;;;;;;;2.50;1.67;;;;;;;30.35;18.16;99153.23;1672370;85;21039;-56
2022/05/23 09:08:58;;;;;;;4.67;1.90;;;;;;;30.61;17.84;99148.19;1657813;84;21119;-56
2022/05/23 09:11:41;;;;;;;3.10;1.50;;;;;;;31.07;17.29;99156.69;1656619;84;21574;-57
2022/05/23 09:14:12;;;;;;;4.30;1.53;;;;;;;31.01;17.12;99148.08;1656764;84;21015;-55
2022/05/23 09:16:43;;;;;;;4.23;1.63;;;;;;;31.98;16.57;99147.67;1656850;84;21141;-63
2022/05/23 09:19:37;;;;;;;4.10;1.92;;;;;;;32.41;16.84;99154.73;1656677;84;21083;-58
2022/05/23 09:22:14;;;;;;;2.87;1.50;;;;;;;32.33;16.14;99148.17;1658146;84;21064;-60
2022/05/23 09:24:54;;;;;;;3.27;1.77;;;;;;;32.13;16.55;99152.23;1657802;84;21337;-56
2022/05/23 09:27:41;;;;;;;3.80;1.75;;;;;;;32.17;16.51;99151.73;1654651;84;22166;-55
2022/05/23 09:30:19;;;;;;;2.70;1.27;;;;;;;32.37;16.71;99159.81;1656175;84;22308;-55
2022/05/23 09:33:01;;;;;;;3.17;1.43;;;;;;;32.42;16.27;99159.55;1646144;85;21565;-56
2022/05/23 09:35:32;;;;;;;3.73;1.63;;;;;;;31.95;16.07;99152.41;1653895;84;21001;-63
2022/05/23 09:38:30;;;;;;;3.02;1.92;;;;;;;31.54;17.03;99157.25;1650787;84;22436;-62
2022/05/23 09:41:02;;;;;;;4.53;1.60;;;;;;;31.41;16.57;99155.81;1647557;84;20949;-65
2022/05/23 09:49:15;;;;;;;3.13;1.53;;;;;;;32.62;15.85;99146.27;1650089;86;21536;-55
2022/05/23 09:52:22;;;;;;;4.23;1.70;;;;;;;33.02;14.90;99134.83;1656919;84;21020;-57
2022/05/23 09:54:53;;;;;;;4.10;2.17;;;;;;;33.38;15.00;99142.94;1647931;84;20969;-55
2022/05/23 09:57:32;;;;;;;4.07;1.77;;;;;;;33.46;14.88;99137.87;1656848;84;21240;-57
2022/05/23 10:00:24;;;;;;;5.43;2.60;;;;;;;33.69;14.96;99137.03;1656829;84;20882;-56
2022/05/23 10:03:01;;;;;;;4.30;2.20;;;;;;;33.87;14.76;99138.83;1656641;84;21064;-57
2022/05/23 10:05:50;;;;;;;3.73;1.70;;;;;;;33.44;14.58;99148.22;1656989;84;20993;-59
2022/05/23 10:08:32;;;;;;;3.30;1.50;;;;;;;32.91;14.33;99145.41;1666095;82;21125;-57
2022/05/23 10:11:04;;;;;;;2.90;1.77;;;;;;;32.60;14.57;99143.70;1673889;84;21323;-64
2022/05/23 10:13:40;;;;;;;5.60;2.10;;;;;;;32.80;14.37;99135.77;1673104;84;21110;-57
2022/05/23 10:16:16;;;;;;;3.23;1.90;;;;;;;32.87;14.93;99135.13;1674520;84;21087;-55
2022/05/23 10:18:50;;;;;;;4.40;2.10;;;;;;;33.14;15.59;99140.80;1672964;85;21088;-66
2022/05/23 10:21:37;;;;;;;5.93;2.10;;;;;;;33.45;14.66;99132.20;1672882;83;21303;-55
2022/05/23 10:24:21;;;;;;;7.43;2.40;;;;;;;33.17;14.29;99134.69;1674437;84;21213;-57
2022/05/23 10:26:55;;;;;;;25.37;22.80;;;;;;;32.44;14.93;99145.15;1673759;84;21525;-57
2022/05/23 10:29:36;;;;;;;14.30;11.73;;;;;;;32.12;15.69;99140.43;1646151;85;21083;-58
2022/05/23 10:32:09;;;;;;;7.35;3.15;;;;;;;32.34;16.40;99134.33;1631972;85;21496;-64
2022/05/23 10:34:44;;;;;;;4.50;2.47;;;;;;;32.90;15.37;99139.81;1673304;84;21707;-57
2022/05/23 10:37:19;;;;;;;4.23;2.50;;;;;;;33.30;15.17;99146.64;1648443;85;21869;-57
2022/05/23 10:43:15;;;;;;;5.27;2.10;;;;;;;33.25;14.63;99138.28;1673285;84;21087;-58
2022/05/23 10:45:57;;;;;;;5.13;2.20;;;;;;;33.07;14.43;99143.42;1672690;85;21526;-56
2022/05/23 10:48:57;;;;;;;3.87;2.10;;;;;;;32.55;14.16;99139.96;1673823;84;21047;-57
2022/05/23 10:52:00;;;;;;;3.77;2.07;;;;;;;32.03;14.69;99139.87;1673490;85;21268;-57
2022/05/23 10:54:42;;;;;;;5.17;1.90;;;;;;;32.44;15.03;99146.50;1672965;85;21098;-57
2022/05/23 10:57:26;;;;;;;5.27;2.33;;;;;;;32.62;14.73;99147.62;1673890;85;21091;-57
2022/05/23 11:00:08;;;;;;;3.23;2.17;;;;;;;32.69;14.31;99157.20;1673136;85;21269;-57
2022/05/23 11:02:49;;;;;;;4.17;2.40;;;;;;;32.90;14.22;99147.91;1673621;85;21584;-57
2022/05/23 11:05:38;;;;;;;4.27;2.17;;;;;;;33.22;14.22;99155.20;1673180;85;21538;-67
2022/05/23 11:08:37;;;;;;;4.25;3.02;;;;;;;33.52;14.21;99151.83;1670352;85;20993;-56
2022/05/23 11:11:13;;;;;;;6.40;4.15;;;;;;;33.74;14.28;99147.52;1660783;85;22085;-57
2022/05/23 11:14:16;;;;;;;6.33;4.60;;;;;;;33.71;14.27;99158.47;1658011;85;21095;-56
2022/05/23 11:17:22;;;;;;;3.93;2.30;;;;;;;33.31;14.00;99152.27;1605395;88;21163;-56
2022/05/23 11:20:29;;;;;;;4.53;2.40;;;;;;;33.25;14.18;99145.61;1695557;84;21753;-57
2022/05/23 11:23:18;;;;;;;3.12;2.50;;;;;;;33.44;13.86;99141.46;1694550;83;21546;-64
2022/05/23 11:25:47;;;;;;;3.95;2.55;;;;;;;33.47;13.69;99147.52;1685621;83;21000;-62
2022/05/23 11:34:26;;;;;;;3.83;2.35;;;;;;;33.59;13.62;99147.31;1695362;84;21363;-57
2022/05/23 11:37:01;;;;;;;4.00;2.77;;;;;;;33.55;13.53;99147.83;1649105;84;21068;-56
2022/05/23 11:39:50;;;;;;;4.92;3.10;;;;;;;33.55;13.75;99149.18;1695230;83;21012;-64
2022/05/23 11:42:55;;;;;;;5.62;3.00;;;;;;;33.60;13.77;99142.13;1695866;83;21089;-56
2022/05/23 11:48:46;;;;;;;6.45;2.80;;;;;;;33.05;14.14;99153.78;1671744;85;21143;-54
2022/05/23 11:51:32;;;;;;;5.28;3.25;;;;;;;32.56;14.18;99150.95;1673199;85;21020;-55
2022/05/23 11:54:34;;;;;;;8.83;2.87;;;;;;;32.18;14.29;99154.63;1672824;85;21340;-58
2022/05/23 11:57:06;;;;;;;4.50;2.77;;;;;;;31.76;15.33;99156.40;1651353;85;21041;-58
2022/05/23 11:59:39;;;;;;;4.10;2.67;;;;;;;31.44;15.64;99160.47;1672818;85;21123;-57
2022/05/23 12:02:13;;;;;;;6.47;2.60;;;;;;;31.71;15.25;99152.84;1672635;85;21203;-57
2022/05/23 12:04:55;;;;;;;5.50;3.27;;;;;;;31.93;15.08;99157.37;1672187;85;20965;-60
2022/05/23 12:07:41;;;;;;;5.33;3.57;;;;;;;31.87;15.02;99162.84;1672338;85;21164;-56
2022/05/23 12:10:29;;;;;;;4.93;3.03;;;;;;;31.89;14.87;99159.20;1672387;85;21021;-57
2022/05/23 12:12:57;;;;;;;5.30;3.17;;;;;;;31.98;14.52;99164.63;1663913;85;21641;-57
2022/05/23 12:15:49;;;;;;;5.17;3.40;;;;;;;31.76;14.70;99167.18;1672712;85;21223;-57
2022/05/23 12:18:26;;;;;;;7.30;4.07;;;;;;;31.64;14.85;99158.64;1671771;85;21045;-61
2022/05/23 12:21:00;;;;;;;14.50;3.70;;;;;;;31.91;15.02;99165.04;1634158;86;21357;-56
2022/05/23 12:23:43;;;;;;;10.17;3.30;;;;;;;32.16;14.91;99169.05;1645236;86;21029;-56
2022/05/23 12:26:16;;;;;;;5.63;2.60;;;;;;;32.20;14.31;99169.90;1645941;86;21124;-58
2022/05/23 12:28:53;;;;;;;6.63;3.30;;;;;;;32.10;14.16;99170.45;1641414;86;21177;-55
2022/05/23 12:31:30;;;;;;;4.27;3.10;;;;;;;32.10;14.45;99166.41;1693940;83;20975;-56
2022/05/23 12:34:12;;;;;;;6.10;3.37;;;;;;;32.05;15.27;99173.98;1695486;84;20957;-55
2022/05/23 12:36:51;;;;;;;5.30;3.10;;;;;;;32.15;14.15;99174.78;1695898;84;21577;-56
2022/05/23 12:39:41;;;;;;;5.00;3.60;;;;;;;31.96;14.37;99174.97;1695936;83;20979;-65
2022/05/23 12:42:41;;;;;;;6.95;4.03;;;;;;;32.05;14.53;99177.48;1683739;84;21332;-57
2022/05/23 12:45:31;;;;;;;6.50;3.57;;;;;;;31.91;14.48;99175.25;1695574;84;21082;-57
2022/05/23 12:48:10;;;;;;;7.35;3.72;;;;;;;31.83;14.90;99176.77;1697080;83;24827;-56
2022/05/23 12:51:19;;;;;;;4.73;3.47;;;;;;;31.62;14.71;99175.71;1696467;83;21081;-57
2022/05/23 12:54:10;;;;;;;5.90;4.03;;;;;;;31.20;15.02;99180.27;1694951;84;21059;-64
2022/05/23 12:56:41;;;;;;;;;;;;;;;31.08;15.02;99183.82;1698640;84;21845;-56
2022/05/23 12:59:30;;;;;;;5.47;3.57;;;;;;;31.18;14.75;99181.97;1696225;84;20149;-65
2022/05/23 13:02:02;;;;;;;6.27;3.67;;;;;;;31.19;15.02;99184.87;1696015;84;20953;-57
2022/05/23 13:04:53;;;;;;;6.07;3.60;;;;;;;31.27;14.59;99183.14;1696514;83;21039;-58
2022/05/23 13:07:34;;;;;;;7.03;3.80;;;;;;;31.18;14.20;99181.97;1696503;83;21918;-57
2022/05/23 13:10:14;;;;;;;9.10;4.10;;;;;;;30.98;14.86;99180.28;1695678;84;21332;-56